Air Navigation Services of Czech Republic
Airport: LKPJ Updated:  23.09.2020 05:30:25  UTC
 METAR LKPJ 23.09. 05:30 ...
METAR LKPJ 230530Z AUTO 30002KT CAVOK 09/08 Q1010=